Time;durP1;ratioP1;P1;durP2;ratioP2;P2;SDS_P1;SDS_P2;PMS_P1;PMS_P2;Temp;Humidity;BMP_temperature;BMP_pressure;BME280_temperature;BME280_humidity;BME280_pressure;Samples;Min_cycle;Max_cycle;Signal;HPM_P1;HPM_P2
2020/12/14 00:00:19;;;;;;;168.45;48.72;;;;;;;3.74;100.00;100848.31;5041186;28;20052;-63
2020/12/14 00:02:46;;;;;;;158.13;48.45;;;;;;;3.68;100.00;100841.50;5031474;28;20051;-60
2020/12/14 00:05:14;;;;;;;167.77;47.15;;;;;;;3.65;100.00;100856.34;5040700;28;20148;-60
2020/12/14 00:07:41;;;;;;;171.32;46.95;;;;;;;3.72;100.00;100852.69;5039595;28;20045;-61
2020/12/14 00:10:08;;;;;;;162.75;48.63;;;;;;;3.72;100.00;100853.53;5044085;28;20049;-60
2020/12/14 00:12:35;;;;;;;167.13;47.17;;;;;;;3.78;100.00;100853.41;5042428;28;20144;-61
2020/12/14 00:15:04;;;;;;;160.38;44.92;;;;;;;3.81;100.00;100849.84;5020209;28;20045;-61
2020/12/14 00:17:30;;;;;;;172.38;46.75;;;;;;;3.73;100.00;100851.78;5026244;28;20421;-63
2020/12/14 00:19:57;;;;;;;160.63;45.83;;;;;;;3.69;100.00;100843.22;5039904;28;20334;-61
2020/12/14 00:22:24;;;;;;;167.60;48.78;;;;;;;3.75;100.00;100850.00;5043160;28;20131;-61
2020/12/14 00:24:51;;;;;;;177.80;50.55;;;;;;;3.81;100.00;100847.22;5024556;28;20045;-63
2020/12/14 00:27:18;;;;;;;162.20;46.35;;;;;;;3.84;100.00;100852.38;5037856;28;20114;-61
2020/12/14 00:29:44;;;;;;;169.02;48.35;;;;;;;3.79;100.00;100849.03;5037783;28;20441;-62
2020/12/14 00:32:11;;;;;;;177.23;48.78;;;;;;;3.84;100.00;100841.09;5035313;28;20045;-63
2020/12/14 00:34:38;;;;;;;173.52;48.08;;;;;;;3.96;100.00;100849.44;5042402;28;20052;-60
2020/12/14 00:37:07;;;;;;;167.07;47.47;;;;;;;3.86;100.00;100844.50;5045663;28;20057;-61
2020/12/14 00:39:34;;;;;;;169.40;46.60;;;;;;;3.90;100.00;100846.13;5039920;28;20054;-63
2020/12/14 00:42:02;;;;;;;169.75;50.85;;;;;;;3.86;100.00;100855.78;5039306;28;20068;-60
2020/12/14 00:44:29;;;;;;;170.18;51.15;;;;;;;3.84;100.00;100848.91;5042259;28;20048;-62
2020/12/14 00:46:56;;;;;;;144.70;46.17;;;;;;;3.92;100.00;100847.81;5038707;28;20068;-63
2020/12/14 00:49:23;;;;;;;154.38;45.03;;;;;;;4.16;100.00;100853.22;5035687;28;20171;-61
2020/12/14 00:51:50;;;;;;;156.35;45.88;;;;;;;4.04;100.00;100847.44;5037825;28;20053;-62
2020/12/14 00:54:17;;;;;;;164.35;46.10;;;;;;;3.96;100.00;100838.13;5040823;28;20048;-60
2020/12/14 00:56:44;;;;;;;159.00;46.47;;;;;;;4.02;100.00;100841.44;5043974;28;20337;-64
2020/12/14 00:59:10;;;;;;;154.70;45.97;;;;;;;4.03;99.73;100840.53;5040551;28;20053;-59
2020/12/14 01:01:37;;;;;;;157.15;47.50;;;;;;;3.98;100.00;100850.22;5035088;28;20807;-62
2020/12/14 01:04:04;;;;;;;162.65;48.22;;;;;;;4.04;100.00;100855.25;5018797;28;20045;-62
2020/12/14 01:06:31;;;;;;;152.68;43.70;;;;;;;3.97;100.00;100851.13;5044502;28;20208;-62
2020/12/14 01:08:57;;;;;;;151.43;45.72;;;;;;;4.04;100.00;100855.25;5037878;28;20061;-63
2020/12/14 01:11:28;;;;;;;155.70;48.00;;;;;;;4.02;100.00;100851.84;5038266;28;20044;-62
2020/12/14 01:13:55;;;;;;;135.55;42.28;;;;;;;4.11;99.98;100865.53;5038224;28;20056;-61
2020/12/14 01:16:22;;;;;;;143.85;44.22;;;;;;;4.07;100.00;100864.75;5043314;28;20509;-62
2020/12/14 01:18:50;;;;;;;149.75;44.58;;;;;;;4.09;99.92;100862.09;5045473;28;20648;-60
2020/12/14 01:21:23;;;;;;;132.82;44.20;;;;;;;4.17;99.17;100866.19;5051139;28;20049;-60
2020/12/14 01:23:50;;;;;;;134.27;42.58;;;;;;;4.27;98.81;100872.84;5046059;28;20122;-60
2020/12/14 01:26:17;;;;;;;133.95;43.53;;;;;;;4.16;100.00;100866.25;5048347;28;20052;-62
2020/12/14 01:28:43;;;;;;;138.25;43.33;;;;;;;4.23;99.61;100871.25;5028064;28;20121;-62
2020/12/14 01:31:10;;;;;;;126.18;40.92;;;;;;;4.24;99.60;100872.09;5043723;28;20049;-61
2020/12/14 01:33:37;;;;;;;141.13;42.47;;;;;;;4.24;98.86;100872.09;5055386;28;20052;-61
2020/12/14 01:36:04;;;;;;;134.48;42.63;;;;;;;4.05;99.53;100871.72;5044690;28;20513;-60
2020/12/14 01:38:31;;;;;;;135.18;43.75;;;;;;;4.23;100.00;100872.97;5042267;28;20090;-62
2020/12/14 01:40:57;;;;;;;133.10;44.38;;;;;;;4.27;99.53;100874.59;5037766;28;20065;-62
2020/12/14 01:43:25;;;;;;;113.95;40.92;;;;;;;4.20;99.37;100862.66;5043467;28;20053;-61
2020/12/14 01:45:52;;;;;;;136.13;43.17;;;;;;;4.14;100.00;100866.25;5024519;28;20061;-59
2020/12/14 01:48:24;;;;;;;126.60;43.78;;;;;;;4.11;100.00;100868.13;5036435;28;20054;-61
2020/12/14 01:50:52;;;;;;;129.18;43.90;;;;;;;4.29;99.71;100870.22;5021570;28;20430;-62
2020/12/14 01:53:21;;;;;;;125.40;41.90;;;;;;;4.32;99.62;100859.66;5022690;28;20057;-63
2020/12/14 01:55:53;;;;;;;135.15;43.45;;;;;;;4.34;99.91;100867.47;5041117;28;20049;-62
2020/12/14 01:58:21;;;;;;;132.32;44.45;;;;;;;4.39;98.90;100858.59;5042952;28;20072;-60
2020/12/14 02:00:48;;;;;;;142.70;44.80;;;;;;;4.29;99.61;100858.03;5041101;28;20069;-63
2020/12/14 02:03:15;;;;;;;120.50;42.30;;;;;;;4.38;99.43;100858.66;5036945;28;20136;-62
2020/12/14 02:05:41;;;;;;;124.85;43.75;;;;;;;4.31;99.37;100850.16;5040287;28;20156;-61
2020/12/14 02:08:08;;;;;;;127.68;41.60;;;;;;;4.35;99.96;100843.94;5042446;28;20120;-62
2020/12/14 02:10:35;;;;;;;139.98;42.40;;;;;;;4.30;100.00;100843.25;5035556;28;20476;-62
2020/12/14 02:13:03;;;;;;;133.50;41.50;;;;;;;4.29;100.00;100854.56;5038160;28;20367;-60
2020/12/14 02:15:30;;;;;;;145.18;43.65;;;;;;;4.30;100.00;100856.28;5027323;28;20045;-59
2020/12/14 02:17:56;;;;;;;123.38;41.10;;;;;;;4.21;100.00;100851.31;5040903;28;20049;-63
2020/12/14 02:20:23;;;;;;;133.00;40.90;;;;;;;4.34;100.00;100847.47;5039924;28;20084;-62
2020/12/14 02:22:50;;;;;;;128.35;41.15;;;;;;;4.23;100.00;100853.00;5037740;28;20061;-62
2020/12/14 02:25:17;;;;;;;142.23;43.55;;;;;;;4.16;100.00;100848.84;5037856;28;20212;-60
2020/12/14 02:27:45;;;;;;;156.10;46.45;;;;;;;4.02;100.00;100843.19;5047769;28;20053;-60
2020/12/14 02:30:14;;;;;;;147.43;41.88;;;;;;;4.07;100.00;100842.16;5044010;28;20056;-61
2020/12/14 02:32:41;;;;;;;143.55;45.05;;;;;;;4.12;100.00;100831.59;5038606;28;20135;-60
2020/12/14 02:35:08;;;;;;;121.95;41.53;;;;;;;4.22;100.00;100829.56;5028762;28;20060;-61
2020/12/14 02:37:35;;;;;;;122.18;40.13;;;;;;;4.23;100.00;100816.53;5046652;28;20514;-60
2020/12/14 02:40:03;;;;;;;132.32;40.38;;;;;;;4.30;100.00;100814.56;5024818;28;20240;-61
2020/12/14 02:42:30;;;;;;;118.20;39.25;;;;;;;4.28;100.00;100817.22;5034837;28;20457;-61
2020/12/14 02:44:56;;;;;;;118.75;39.47;;;;;;;4.27;100.00;100819.88;5043424;28;20056;-62
2020/12/14 02:47:23;;;;;;;110.07;38.30;;;;;;;4.22;100.00;100827.81;5039996;28;20105;-62
2020/12/14 02:49:50;;;;;;;137.07;37.83;;;;;;;4.10;100.00;100835.13;5047554;28;20135;-61
2020/12/14 02:52:16;;;;;;;190.88;42.90;;;;;;;3.98;100.00;100838.97;5043966;28;20060;-60
2020/12/14 02:54:44;;;;;;;136.88;39.72;;;;;;;4.07;100.00;100836.94;5044129;28;20056;-62
2020/12/14 02:57:11;;;;;;;148.63;40.85;;;;;;;4.00;100.00;100829.34;5026748;28;20084;-60
2020/12/14 02:59:39;;;;;;;155.80;46.67;;;;;;;4.06;100.00;100830.03;5039736;28;20093;-62
2020/12/14 03:02:06;;;;;;;185.25;50.45;;;;;;;4.10;100.00;100837.75;5042864;28;20064;-62
2020/12/14 03:04:33;;;;;;;332.88;59.17;;;;;;;4.18;100.00;100831.41;5014038;28;20037;-60
2020/12/14 03:06:59;;;;;;;259.13;61.33;;;;;;;4.27;100.00;100833.75;5043867;28;20235;-63
2020/12/14 03:09:26;;;;;;;212.55;57.08;;;;;;;4.29;100.00;100836.31;5042119;28;20079;-61
2020/12/14 03:11:53;;;;;;;191.15;54.20;;;;;;;4.34;100.00;100837.03;5038534;28;20053;-60
2020/12/14 03:14:21;;;;;;;153.05;47.70;;;;;;;4.31;100.00;100832.75;5038876;28;20045;-62
2020/12/14 03:16:50;;;;;;;158.85;46.65;;;;;;;4.34;100.00;100833.59;5040432;28;20052;-60
2020/12/14 03:19:18;;;;;;;126.35;43.33;;;;;;;4.43;100.00;100828.09;5022505;28;21038;-61
2020/12/14 03:21:45;;;;;;;150.65;42.17;;;;;;;4.39;100.00;100829.94;5036114;28;20056;-60
2020/12/14 03:24:12;;;;;;;141.27;43.00;;;;;;;4.45;100.00;100837.56;5044461;28;20056;-60
2020/12/14 03:26:39;;;;;;;122.13;39.95;;;;;;;4.46;100.00;100834.06;5037690;28;20045;-61
2020/12/14 03:29:08;;;;;;;125.03;37.53;;;;;;;4.49;100.00;100831.34;5037332;28;20068;-62
2020/12/14 03:31:36;;;;;;;224.57;41.22;;;;;;;4.48;100.00;100832.25;5034949;28;20065;-59
2020/12/14 03:34:02;;;;;;;150.45;39.10;;;;;;;4.51;100.00;100826.09;5042759;28;20049;-60
2020/12/14 03:36:29;;;;;;;135.85;38.67;;;;;;;4.45;100.00;100824.53;5026334;28;20045;-62
2020/12/14 03:38:56;;;;;;;127.18;39.17;;;;;;;4.43;100.00;100822.88;5043157;28;20509;-62
2020/12/14 03:41:23;;;;;;;116.40;37.33;;;;;;;4.48;100.00;100820.97;5043117;28;20047;-63
2020/12/14 03:43:51;;;;;;;130.80;38.25;;;;;;;4.54;100.00;100824.22;5034799;28;20060;-61
2020/12/14 03:46:23;;;;;;;137.50;39.67;;;;;;;4.46;100.00;100818.44;5037907;28;20179;-61
2020/12/14 03:48:54;;;;;;;111.35;36.67;;;;;;;4.53;100.00;100814.72;5017434;28;20135;-61
2020/12/14 03:51:21;;;;;;;146.95;40.72;;;;;;;4.48;100.00;100816.63;5049625;28;20132;-62
2020/12/14 03:53:48;;;;;;;130.20;38.00;;;;;;;4.54;100.00;100810.34;5050807;28;20156;-59
2020/12/14 03:56:23;;;;;;;130.05;39.70;;;;;;;4.48;100.00;100811.41;5043001;28;20045;-60
2020/12/14 03:58:50;;;;;;;116.00;37.40;;;;;;;4.45;100.00;100815.84;5041511;28;20049;-60
2020/12/14 04:01:24;;;;;;;121.90;38.33;;;;;;;4.48;100.00;100816.63;5042459;28;20087;-58
2020/12/14 04:03:52;;;;;;;146.45;39.80;;;;;;;4.42;100.00;100809.00;5040476;28;20367;-61
2020/12/14 04:06:20;;;;;;;118.65;39.88;;;;;;;4.46;100.00;100810.63;5039993;28;20059;-62
2020/12/14 04:08:47;;;;;;;137.43;39.40;;;;;;;4.50;100.00;100814.84;5042496;28;20552;-61
2020/12/14 04:11:14;;;;;;;118.78;37.60;;;;;;;4.49;100.00;100813.09;5041518;28;20544;-60
2020/12/14 04:13:41;;;;;;;112.70;38.53;;;;;;;4.48;100.00;100818.38;5016115;28;20059;-63
2020/12/14 04:16:09;;;;;;;113.90;39.53;;;;;;;4.54;100.00;100815.56;5040077;28;20049;-61
2020/12/14 04:18:36;;;;;;;110.72;37.75;;;;;;;4.49;100.00;100814.84;5022818;28;20060;-62
2020/12/14 04:21:03;;;;;;;106.75;36.25;;;;;;;4.34;100.00;100808.38;5014526;28;20064;-62
2020/12/14 04:23:30;;;;;;;102.82;35.85;;;;;;;4.28;100.00;100819.00;5023175;28;20095;-59
2020/12/14 04:25:57;;;;;;;97.25;34.85;;;;;;;4.37;100.00;100813.50;5043544;28;20048;-62
2020/12/14 04:28:24;;;;;;;99.93;35.05;;;;;;;4.40;100.00;100815.13;5042294;28;20048;-62
2020/12/14 04:30:51;;;;;;;88.28;33.50;;;;;;;4.34;100.00;100813.59;5036025;28;20047;-59
2020/12/14 04:33:18;;;;;;;84.60;32.47;;;;;;;4.33;100.00;100817.09;5028458;28;20049;-63
2020/12/14 04:35:45;;;;;;;78.65;31.35;;;;;;;4.32;100.00;100813.63;5043177;28;20085;-61
2020/12/14 04:38:12;;;;;;;72.13;32.10;;;;;;;4.22;100.00;100817.41;5041923;28;20067;-61
2020/12/14 04:40:38;;;;;;;75.20;29.50;;;;;;;4.14;100.00;100811.53;5042094;28;20057;-64
2020/12/14 04:43:07;;;;;;;74.90;31.77;;;;;;;4.26;100.00;100820.78;5026007;28;20088;-60
2020/12/14 04:45:34;;;;;;;83.50;28.30;;;;;;;4.21;100.00;100827.88;5044808;28;20068;-63
2020/12/14 04:48:01;;;;;;;80.82;30.25;;;;;;;4.19;100.00;100821.88;5037029;23;20053;-56
2020/12/14 04:50:28;;;;;;;65.38;27.05;;;;;;;4.14;100.00;100826.34;5026747;28;20125;-52
2020/12/14 04:52:55;;;;;;;64.28;27.42;;;;;;;4.09;100.00;100829.06;5020461;28;20049;-53
2020/12/14 04:55:23;;;;;;;58.22;27.58;;;;;;;4.15;100.00;100828.91;5025004;28;20425;-54
2020/12/14 04:57:51;;;;;;;62.30;25.73;;;;;;;4.14;100.00;100834.16;5028864;28;20053;-56
2020/12/14 05:00:20;;;;;;;65.03;27.23;;;;;;;4.10;100.00;100833.41;5011186;28;20049;-54
2020/12/14 05:02:54;;;;;;;52.15;27.00;;;;;;;4.06;100.00;100837.84;5022052;28;20064;-54
2020/12/14 05:05:22;;;;;;;66.95;27.40;;;;;;;4.03;100.00;100831.88;5024775;28;20048;-53
2020/12/14 05:07:48;;;;;;;58.72;26.13;;;;;;;4.06;100.00;100826.56;5025233;28;20062;-51
2020/12/14 05:10:15;;;;;;;60.22;26.38;;;;;;;4.05;100.00;100827.44;5029498;28;20432;-53
2020/12/14 05:12:45;;;;;;;56.47;26.20;;;;;;;4.00;100.00;100831.94;5021733;28;20052;-52
2020/12/14 05:15:20;;;;;;;64.43;27.52;;;;;;;3.99;100.00;100831.09;5026167;28;20519;-51
2020/12/14 05:17:48;;;;;;;64.33;28.13;;;;;;;4.04;100.00;100828.34;5027603;28;20465;-55
2020/12/14 05:20:16;;;;;;;70.30;29.45;;;;;;;3.97;100.00;100838.13;5026940;28;20041;-54
2020/12/14 05:23:00;;;;;;;68.68;28.67;;;;;;;4.01;100.00;100837.13;5022037;28;20048;-54
2020/12/14 05:25:28;;;;;;;68.28;27.65;;;;;;;3.95;100.00;100842.50;5027433;28;20046;-54
2020/12/14 05:28:04;;;;;;;60.25;27.30;;;;;;;4.06;100.00;100844.81;5017972;28;20042;-54
2020/12/14 05:30:39;;;;;;;60.97;26.88;;;;;;;4.12;100.00;100847.22;5023707;28;20061;-51
2020/12/14 05:33:07;;;;;;;60.57;27.87;;;;;;;4.11;100.00;100844.69;5002734;28;20060;-53
2020/12/14 05:35:35;;;;;;;60.15;28.65;;;;;;;4.16;100.00;100837.59;5026316;28;20171;-54
2020/12/14 05:38:09;;;;;;;62.05;28.10;;;;;;;4.05;100.00;100837.88;5020080;28;20057;-57
2020/12/14 05:40:36;;;;;;;59.10;27.23;;;;;;;4.00;100.00;100839.75;5027200;28;20120;-55
2020/12/14 05:43:11;;;;;;;61.42;27.90;;;;;;;4.02;100.00;100833.63;5021085;28;20378;-58
2020/12/14 05:45:38;;;;;;;59.28;27.80;;;;;;;4.03;100.00;100840.53;5023824;28;20050;-57
2020/12/14 05:48:21;;;;;;;69.18;29.73;;;;;;;3.96;100.00;100841.63;5007283;28;20053;-52
2020/12/14 05:50:49;;;;;;;70.60;27.05;;;;;;;4.02;100.00;100840.59;5017027;28;20513;-56
2020/12/14 05:53:19;;;;;;;70.63;29.40;;;;;;;4.01;100.00;100839.72;5004793;28;20045;-52
2020/12/14 05:55:46;;;;;;;68.88;29.25;;;;;;;3.98;100.00;100834.59;5024467;28;20156;-57
2020/12/14 05:58:15;;;;;;;62.35;28.08;;;;;;;4.03;100.00;100831.88;5024792;28;20379;-52
2020/12/14 06:00:45;;;;;;;60.67;27.95;;;;;;;4.05;100.00;100824.84;5019989;28;20063;-54
2020/12/14 06:03:13;;;;;;;66.60;27.33;;;;;;;3.99;100.00;100825.88;5001498;28;20137;-54
2020/12/14 06:05:41;;;;;;;67.93;30.60;;;;;;;3.97;100.00;100830.28;5009868;28;20133;-58
2020/12/14 06:08:31;;;;;;;70.95;30.48;;;;;;;4.04;100.00;100830.97;5021458;28;20427;-52
2020/12/14 06:11:00;;;;;;;69.35;29.15;;;;;;;4.03;100.00;100818.84;4993644;28;20084;-54
2020/12/14 06:13:30;;;;;;;75.28;32.10;;;;;;;4.00;100.00;100822.38;5015015;28;20693;-54
2020/12/14 06:16:00;;;;;;;66.38;29.83;;;;;;;4.01;100.00;100824.09;5028158;28;20458;-53
2020/12/14 06:18:32;;;;;;;69.28;32.80;;;;;;;3.89;100.00;100828.81;5031173;28;20077;-53
2020/12/14 06:21:00;;;;;;;90.45;33.25;;;;;;;3.92;100.00;100826.97;5023386;28;20095;-54
2020/12/14 06:23:29;;;;;;;103.43;34.22;;;;;;;3.85;100.00;100821.97;5020646;28;20045;-58
2020/12/14 06:25:56;;;;;;;90.20;32.85;;;;;;;3.92;100.00;100819.16;5010551;28;20053;-52
2020/12/14 06:28:32;;;;;;;76.30;30.98;;;;;;;3.89;100.00;100816.63;5023363;28;20056;-55
2020/12/14 06:30:59;;;;;;;71.47;31.75;;;;;;;3.87;100.00;100818.41;5020129;28;20147;-58
2020/12/14 06:33:38;;;;;;;73.03;32.58;;;;;;;3.92;100.00;100813.09;5025347;28;20265;-52
2020/12/14 06:36:16;;;;;;;74.63;31.83;;;;;;;3.83;100.00;100814.22;5002709;28;20072;-53
2020/12/14 06:38:44;;;;;;;64.13;29.10;;;;;;;3.86;100.00;100816.72;5023920;28;20057;-51
2020/12/14 06:41:26;;;;;;;73.13;30.85;;;;;;;3.84;100.00;100818.50;5021912;28;20124;-55
2020/12/14 06:44:10;;;;;;;70.15;30.80;;;;;;;3.83;100.00;100827.22;5022272;28;20487;-55
2020/12/14 06:46:37;;;;;;;75.65;32.42;;;;;;;3.80;100.00;100822.94;5003959;28;20171;-53
2020/12/14 06:49:05;;;;;;;74.90;30.17;;;;;;;3.78;100.00;100814.34;5023649;28;20451;-56
2020/12/14 06:51:51;;;;;;;62.70;30.48;;;;;;;3.78;100.00;100816.06;5000329;28;20059;-54
2020/12/14 06:54:40;;;;;;;65.95;28.98;;;;;;;3.91;100.00;100819.19;5025306;28;20472;-52
2020/12/14 06:57:08;;;;;;;67.90;29.30;;;;;;;3.89;100.00;100821.00;5015349;28;20429;-52
2020/12/14 06:59:36;;;;;;;57.22;27.67;;;;;;;3.81;100.00;100809.03;5018752;28;20058;-61
2020/12/14 07:02:05;;;;;;;65.68;27.42;;;;;;;3.66;100.00;100811.22;5020071;28;20057;-55
2020/12/14 07:04:32;;;;;;;66.93;28.38;;;;;;;3.64;100.00;100823.41;5023401;28;20064;-54
2020/12/14 07:07:04;;;;;;;66.57;28.27;;;;;;;3.68;100.00;100812.88;5003037;28;20056;-52
2020/12/14 07:09:36;;;;;;;55.08;26.83;;;;;;;3.66;100.00;100817.28;5005330;28;20586;-56
2020/12/14 07:12:08;;;;;;;60.17;27.60;;;;;;;3.75;100.00;100817.03;5016411;28;20148;-53
2020/12/14 07:14:44;;;;;;;63.33;24.65;;;;;;;3.74;100.00;100827.50;5019593;28;20050;-57
2020/12/14 07:17:18;;;;;;;57.63;28.27;;;;;;;3.71;100.00;100827.56;5019117;28;20444;-57
2020/12/14 07:19:46;;;;;;;61.63;26.42;;;;;;;3.80;100.00;100824.69;5019762;28;20072;-53
2020/12/14 07:22:20;;;;;;;47.78;25.88;;;;;;;3.85;100.00;100835.84;5017021;28;20057;-53
2020/12/14 07:24:56;;;;;;;64.53;26.65;;;;;;;4.03;100.00;100834.47;5002126;28;20430;-56
2020/12/14 07:27:22;;;;;;;55.28;26.15;;;;;;;4.01;100.00;100834.53;5017682;28;20124;-54
2020/12/14 07:29:49;;;;;;;60.05;25.55;;;;;;;4.03;100.00;100837.06;5014520;28;20068;-54
2020/12/14 07:32:16;;;;;;;59.72;25.58;;;;;;;4.02;100.00;100840.59;5018872;28;20072;-56
2020/12/14 07:34:52;;;;;;;54.30;25.98;;;;;;;4.16;100.00;100838.44;5025911;28;20467;-58
2020/12/14 07:37:22;;;;;;;49.88;25.45;;;;;;;4.14;100.00;100837.59;5015319;28;20419;-60
2020/12/14 07:39:49;;;;;;;51.92;25.95;;;;;;;4.06;100.00;100837.84;5014568;28;20793;-53
2020/12/14 07:42:28;;;;;;;50.50;24.27;;;;;;;4.19;99.52;100842.72;5019944;28;20459;-53
2020/12/14 07:45:12;;;;;;;54.17;26.23;;;;;;;4.23;99.64;100839.09;5012168;28;20132;-53
2020/12/14 07:47:40;;;;;;;51.58;23.05;;;;;;;4.25;99.97;100838.16;5012695;28;20056;-54
2020/12/14 07:50:21;;;;;;;48.08;24.45;;;;;;;4.28;98.95;100839.84;5018335;28;20502;-56
2020/12/14 07:52:50;;;;;;;47.15;25.65;;;;;;;4.28;98.83;100835.47;5015212;28;20064;-54
2020/12/14 07:55:17;;;;;;;40.17;22.83;;;;;;;4.18;99.02;100841.84;5006304;28;20104;-53
2020/12/14 07:57:46;;;;;;;50.33;26.15;;;;;;;4.07;99.16;100844.75;5017788;28;20064;-54
2020/12/14 08:00:15;;;;;;;49.90;25.92;;;;;;;4.16;99.65;100850.59;4999204;28;20054;-53
2020/12/14 08:02:43;;;;;;;39.70;22.95;;;;;;;4.29;98.57;100838.94;5018074;28;20144;-56
2020/12/14 08:05:14;;;;;;;42.78;23.45;;;;;;;4.40;98.06;100831.63;5018798;28;20065;-52
2020/12/14 08:07:46;;;;;;;40.65;22.80;;;;;;;4.36;97.94;100844.81;5017529;28;20053;-55
2020/12/14 08:10:21;;;;;;;;;;;;;;;4.20;98.32;100841.81;4998766;28;20467;-56
2020/12/14 08:12:48;;;;;;;38.72;20.45;;;;;;;4.18;97.72;100830.56;5003297;28;19939;-54
2020/12/14 08:15:19;;;;;;;36.28;20.85;;;;;;;4.19;98.00;100842.72;4986478;28;20050;-55
2020/12/14 08:17:46;;;;;;;43.53;22.60;;;;;;;4.17;98.78;100836.69;5017960;28;20085;-55
2020/12/14 08:20:32;;;;;;;39.92;22.95;;;;;;;4.22;97.76;100840.84;5020365;28;20049;-50
2020/12/14 08:23:00;;;;;;;;;;;;;;;4.27;98.01;100836.34;5015831;28;20087;-56
2020/12/14 08:25:29;;;;;;;36.65;21.23;;;;;;;4.26;97.63;100831.19;5017640;28;19921;-54
2020/12/14 08:27:58;;;;;;;40.08;23.13;;;;;;;4.21;96.86;100831.34;4994869;28;20057;-57
2020/12/14 08:30:25;;;;;;;40.15;22.23;;;;;;;4.26;97.60;100828.59;5019814;28;20049;-54
2020/12/14 08:33:15;;;;;;;36.83;22.35;;;;;;;4.27;97.29;100836.34;5017770;28;20058;-54
2020/12/14 08:35:46;;;;;;;38.33;23.50;;;;;;;4.26;96.71;100831.19;5017357;28;20046;-55
2020/12/14 08:38:15;;;;;;;46.00;24.42;;;;;;;4.36;97.29;100823.94;5019507;28;20053;-53
2020/12/14 08:40:58;;;;;;;39.55;22.58;;;;;;;4.28;96.52;100827.66;5020186;28;20099;-53
2020/12/14 08:43:26;;;;;;;39.08;23.25;;;;;;;4.32;96.17;100821.47;5023774;28;20060;-54
2020/12/14 08:46:09;;;;;;;43.38;22.95;;;;;;;4.39;95.40;100829.09;5008055;28;20088;-54
2020/12/14 08:48:53;;;;;;;36.53;22.08;;;;;;;4.53;94.69;100822.53;5020740;28;20049;-52
2020/12/14 08:51:33;;;;;;;36.40;21.35;;;;;;;4.70;94.02;100823.78;5006347;28;20374;-55
2020/12/14 08:54:21;;;;;;;32.15;20.00;;;;;;;4.86;92.80;100824.97;5020984;28;20068;-54
2020/12/14 08:56:48;;;;;;;31.20;18.25;;;;;;;4.94;92.65;100822.97;5019660;28;21139;-58
2020/12/14 08:59:19;;;;;;;32.13;19.83;;;;;;;4.96;92.77;100815.13;4993571;28;20076;-56
2020/12/14 09:02:00;;;;;;;32.22;20.15;;;;;;;5.00;92.04;100821.94;5016121;28;20049;-53
2020/12/14 09:04:32;;;;;;;33.15;18.42;;;;;;;4.86;92.54;100822.38;5020522;28;20084;-52
2020/12/14 09:06:59;;;;;;;31.38;19.10;;;;;;;4.70;92.66;100821.16;5018724;28;20049;-55
2020/12/14 09:09:38;;;;;;;29.92;19.05;;;;;;;4.85;93.23;100823.28;5003637;28;20376;-52
2020/12/14 09:12:12;;;;;;;29.98;18.33;;;;;;;4.91;92.06;100825.72;5022747;28;20073;-55
2020/12/14 09:14:39;;;;;;;33.75;19.70;;;;;;;4.97;92.70;100828.09;5022639;28;20422;-54
2020/12/14 09:17:13;;;;;;;30.08;18.08;;;;;;;5.10;91.87;100818.13;5022471;28;21032;-56
2020/12/14 09:19:41;;;;;;;27.13;16.92;;;;;;;5.13;91.63;100824.97;4998145;28;20061;-56
2020/12/14 09:22:07;;;;;;;26.27;17.13;;;;;;;5.15;91.00;100816.22;5016182;28;20083;-55
2020/12/14 09:24:35;;;;;;;30.33;18.05;;;;;;;5.15;91.18;100825.81;5016910;28;20541;-57
2020/12/14 09:27:10;;;;;;;30.98;18.02;;;;;;;5.25;90.74;100822.81;5010801;28;20049;-55
2020/12/14 09:29:38;;;;;;;29.67;17.38;;;;;;;5.20;90.46;100819.53;5019433;28;20528;-52
2020/12/14 09:32:05;;;;;;;28.75;17.48;;;;;;;5.07;90.93;100813.84;5013245;28;20065;-54
2020/12/14 09:34:33;;;;;;;27.65;17.10;;;;;;;5.18;91.14;100800.47;5018899;28;20064;-51
2020/12/14 09:37:00;;;;;;;26.85;17.35;;;;;;;5.30;90.88;100807.00;5018420;28;20145;-53
2020/12/14 09:39:29;;;;;;;27.48;17.58;;;;;;;5.25;90.27;100811.53;5007763;28;20041;-51
2020/12/14 09:41:56;;;;;;;31.60;17.98;;;;;;;5.24;90.68;100807.22;5022711;28;20115;-54
2020/12/14 09:44:24;;;;;;;30.48;19.10;;;;;;;5.23;90.34;100813.34;5024728;28;20429;-56
2020/12/14 09:46:51;;;;;;;29.05;17.77;;;;;;;5.30;90.74;100810.47;5025313;28;20144;-56
2020/12/14 09:49:19;;;;;;;29.23;16.67;;;;;;;5.33;89.98;100804.31;5023206;28;20068;-54
2020/12/14 09:51:46;;;;;;;24.52;15.95;;;;;;;5.25;89.94;100814.16;5019683;28;20141;-56
2020/12/14 09:54:13;;;;;;;27.45;15.77;;;;;;;5.29;90.56;100813.13;5023597;28;20089;-52
2020/12/14 09:56:41;;;;;;;27.33;15.77;;;;;;;5.40;89.32;100815.38;5020444;28;20061;-53
2020/12/14 09:59:08;;;;;;;26.90;16.52;;;;;;;5.39;89.41;100817.13;5019819;28;20049;-54
2020/12/14 10:01:35;;;;;;;27.33;15.73;;;;;;;5.41;88.98;100799.66;5003066;28;20061;-54
2020/12/14 10:04:02;;;;;;;26.95;15.93;;;;;;;5.54;88.97;100800.94;5019900;28;20621;-52
2020/12/14 10:06:30;;;;;;;25.20;15.95;;;;;;;5.49;88.07;100795.03;5005528;28;20053;-53
2020/12/14 10:08:57;;;;;;;28.65;14.80;;;;;;;5.54;88.47;100793.13;5022890;28;20390;-56
2020/12/14 10:11:28;;;;;;;25.55;15.25;;;;;;;5.56;87.71;100793.06;5021353;28;20056;-57
2020/12/14 10:13:55;;;;;;;27.83;16.35;;;;;;;5.45;88.43;100790.84;5009136;28;20080;-56
2020/12/14 10:16:23;;;;;;;26.30;15.40;;;;;;;5.66;87.43;100790.97;5002206;28;20057;-52
2020/12/14 10:18:50;;;;;;;26.30;16.40;;;;;;;5.87;86.29;100795.41;5001865;28;20048;-51
2020/12/14 10:21:17;;;;;;;25.25;15.02;;;;;;;5.93;85.77;100789.97;4997895;28;20441;-57
2020/12/14 10:23:44;;;;;;;25.42;15.52;;;;;;;5.86;86.25;100787.63;5017115;28;20053;-53
2020/12/14 10:26:12;;;;;;;29.90;16.23;;;;;;;5.73;86.80;100788.06;5016726;28;20058;-56
2020/12/14 10:28:40;;;;;;;27.77;16.33;;;;;;;5.86;86.31;100787.63;5016409;28;20729;-55
2020/12/14 10:31:07;;;;;;;25.38;14.82;;;;;;;5.72;86.54;100798.56;5007450;28;20053;-56
2020/12/14 10:33:34;;;;;;;27.63;16.95;;;;;;;5.71;86.42;100795.09;5014492;28;20061;-58
2020/12/14 10:36:10;;;;;;;26.65;16.00;;;;;;;5.64;86.56;100798.84;5017523;28;20081;-58
2020/12/14 10:38:39;;;;;;;27.45;16.13;;;;;;;5.80;86.09;100801.75;5021295;28;20053;-57
2020/12/14 10:41:05;;;;;;;26.67;14.50;;;;;;;5.97;85.58;100804.63;5017565;28;20148;-59
2020/12/14 10:43:32;;;;;;;26.92;15.10;;;;;;;6.12;84.96;100804.97;5018604;28;20438;-53
2020/12/14 10:45:59;;;;;;;27.77;15.93;;;;;;;6.15;84.52;100795.25;5019259;28;20058;-55
2020/12/14 10:48:26;;;;;;;26.60;15.18;;;;;;;6.14;84.50;100790.09;5023561;28;20080;-55
2020/12/14 10:50:54;;;;;;;29.65;16.95;;;;;;;6.17;84.55;100789.97;5017884;28;20053;-59
2020/12/14 10:53:21;;;;;;;25.10;15.20;;;;;;;6.15;84.37;100784.81;5020366;28;20060;-58
2020/12/14 10:55:49;;;;;;;28.52;16.40;;;;;;;6.12;85.03;100784.06;5023889;28;20053;-56
2020/12/14 10:58:16;;;;;;;25.33;14.85;;;;;;;6.15;84.43;100784.81;5023042;28;20099;-56
2020/12/14 11:00:43;;;;;;;24.30;15.48;;;;;;;6.15;84.44;100784.81;5003006;28;20049;-55
2020/12/14 11:03:10;;;;;;;26.92;15.90;;;;;;;6.29;84.27;100779.03;5016352;28;20160;-60
2020/12/14 11:05:51;;;;;;;29.33;15.98;;;;;;;6.46;83.75;100781.00;4983949;28;20046;-63
2020/12/14 11:08:18;;;;;;;29.35;16.08;;;;;;;6.56;83.26;100771.88;4998593;28;20527;-62
2020/12/14 11:10:44;;;;;;;26.45;15.73;;;;;;;6.42;84.11;100776.81;4999628;28;20041;-64
2020/12/14 11:13:11;;;;;;;24.60;15.82;;;;;;;6.43;83.63;100766.28;4997571;28;20049;-63
2020/12/14 11:15:38;;;;;;;27.67;16.30;;;;;;;6.31;84.35;100766.78;4987835;28;20519;-63
2020/12/14 11:18:05;;;;;;;32.28;15.27;;;;;;;6.25;84.23;100767.00;4978324;28;20190;-62